Terminal Aerodrome Forecast
Issued by NWS

Home | Current Version | Previous Version | Graphics & Text | Print | Product List | Glossary On
Versions: 1 2 3 4 5 6 7 8 9 10 11 12 13 14 15 16 17 18 19 20 21
000
FTUS43 KMPX 200500
TAFRWF
TAF
KRWF 200520Z 2006/2106 17008KT P6SM SCT030 BKN050
     FM200800 17008KT P6SM SCT080 BKN200
     FM201300 19018G24KT P6SM FEW040 SCT200
     FM210100 18015KT P6SM FEW200=

USA.gov is the U.S. government's official web portal to all federal, state and local government web resources and services.